GLO1849 SBVT-SBGL
Flight info
| Callsign | GLO1849 |
|---|---|
| Flight time | 0h 49m |
| Altitude | 34000 |
| Route | VAPO1C MABSI UZ44 TIGBU MOLSU PAI |
| Aircraft | B738/M-SDE2E3FGHIRWXY/LB1 |
Departure
| Time | 2026-04-24 00:50 |
|---|---|
| Airport | Eurico de Aguiar Salles International Airport (SBVT) |
Arrival
| Time | 2026-04-24 01:40 |
|---|---|
| Airport | Rio Galeão – Tom Jobim International Airport (SBGL) |
| Time | Latitude | Longitude | Altitude | Speed | Heading |
|---|---|---|---|---|---|
| 2026-04-23 23:57 | -20.26459 | -40.28178 | 17 ft | 0 kts | 262° |
| 2026-04-24 00:40 | -20.26458 | -40.28166 | 18 ft | 4 kts | 263° |
| 2026-04-24 00:41 | -20.26455 | -40.28137 | 20 ft | 4 kts | 266° |
| 2026-04-24 00:41 | -20.26454 | -40.28109 | 20 ft | 4 kts | 270° |
| 2026-04-24 00:41 | -20.26455 | -40.28080 | 20 ft | 4 kts | 278° |
| 2026-04-24 00:41 | -20.26462 | -40.28053 | 18 ft | 4 kts | 304° |
| 2026-04-24 00:42 | -20.26475 | -40.28041 | 19 ft | 1 kts | 352° |
| 2026-04-24 00:42 | -20.26478 | -40.28041 | 20 ft | 0 kts | 352° |
| 2026-04-24 00:44 | -20.26469 | -40.28042 | 19 ft | 4 kts | 352° |
| 2026-04-24 00:44 | -20.26415 | -40.28050 | 17 ft | 11 kts | 352° |
| 2026-04-24 00:44 | -20.26336 | -40.28062 | 17 ft | 12 kts | 352° |
| 2026-04-24 00:45 | -20.26244 | -40.28075 | 18 ft | 14 kts | 352° |
| 2026-04-24 00:45 | -20.26142 | -40.28090 | 19 ft | 15 kts | 352° |
| 2026-04-24 00:45 | -20.26037 | -40.28106 | 17 ft | 15 kts | 352° |
| 2026-04-24 00:45 | -20.25935 | -40.28121 | 18 ft | 15 kts | 353° |
| 2026-04-24 00:46 | -20.25836 | -40.28135 | 18 ft | 14 kts | 352° |
| 2026-04-24 00:46 | -20.25743 | -40.28149 | 17 ft | 13 kts | 352° |
| 2026-04-24 00:46 | -20.25653 | -40.28163 | 19 ft | 13 kts | 352° |
| 2026-04-24 00:46 | -20.25559 | -40.28177 | 17 ft | 14 kts | 352° |
| 2026-04-24 00:47 | -20.25465 | -40.28190 | 19 ft | 14 kts | 352° |
| 2026-04-24 00:47 | -20.25367 | -40.28191 | 17 ft | 14 kts | 19° |
| 2026-04-24 00:47 | -20.25299 | -40.28150 | 17 ft | 9 kts | 32° |
| 2026-04-24 00:47 | -20.25244 | -40.28113 | 19 ft | 9 kts | 32° |
| 2026-04-24 00:48 | -20.25183 | -40.28073 | 18 ft | 12 kts | 27° |
| 2026-04-24 00:48 | -20.25087 | -40.28069 | 17 ft | 16 kts | 353° |
| 2026-04-24 00:48 | -20.24976 | -40.28085 | 17 ft | 16 kts | 352° |
| 2026-04-24 00:48 | -20.24876 | -40.28101 | 19 ft | 15 kts | 352° |
| 2026-04-24 00:49 | -20.24821 | -40.28083 | 19 ft | 8 kts | 43° |
| 2026-04-24 00:49 | -20.24777 | -40.28096 | 17 ft | 7 kts | 285° |
| 2026-04-24 00:49 | -20.24814 | -40.28110 | 17 ft | 5 kts | 172° |
| 2026-04-24 00:49 | -20.24817 | -40.28109 | 18 ft | 0 kts | 173° |
| 2026-04-24 00:50 | -20.24999 | -40.28083 | 17 ft | 65 kts | 172° |
| 2026-04-24 00:50 | -20.25700 | -40.27979 | 21 ft | 136 kts | 172° |
| 2026-04-24 00:50 | -20.26800 | -40.27837 | 305 ft | 169 kts | 173° |
| 2026-04-24 00:50 | -20.27967 | -40.27664 | 1157 ft | 170 kts | 172° |
| 2026-04-24 00:51 | -20.29210 | -40.27480 | 1722 ft | 193 kts | 172° |
| 2026-04-24 00:51 | -20.30644 | -40.27270 | 2011 ft | 222 kts | 172° |
| 2026-04-24 00:51 | -20.32267 | -40.27023 | 2267 ft | 248 kts | 172° |
| 2026-04-24 00:51 | -20.33991 | -40.26762 | 2935 ft | 258 kts | 171° |
| 2026-04-24 00:52 | -20.35775 | -40.26574 | 3888 ft | 259 kts | 183° |
| 2026-04-24 00:52 | -20.37514 | -40.27116 | 4814 ft | 264 kts | 204° |
| 2026-04-24 00:52 | -20.39149 | -40.28059 | 5658 ft | 270 kts | 209° |
| 2026-04-24 00:52 | -20.40768 | -40.29100 | 6534 ft | 273 kts | 211° |
| 2026-04-24 00:53 | -20.42397 | -40.30170 | 7346 ft | 277 kts | 211° |
| 2026-04-24 00:53 | -20.44053 | -40.31256 | 8157 ft | 282 kts | 211° |
| 2026-04-24 00:53 | -20.45737 | -40.32353 | 8960 ft | 286 kts | 211° |
| 2026-04-24 00:53 | -20.47445 | -40.33461 | 9784 ft | 290 kts | 211° |
| 2026-04-24 00:54 | -20.49165 | -40.34571 | 10473 ft | 297 kts | 211° |
| 2026-04-24 00:54 | -20.51004 | -40.35753 | 10689 ft | 322 kts | 210° |
| 2026-04-24 00:54 | -20.52997 | -40.37031 | 10874 ft | 346 kts | 210° |
| 2026-04-24 00:54 | -20.55115 | -40.38387 | 11171 ft | 362 kts | 210° |
| 2026-04-24 00:55 | -20.57295 | -40.39783 | 11736 ft | 369 kts | 210° |
| 2026-04-24 00:55 | -20.59507 | -40.41199 | 12389 ft | 372 kts | 210° |
| 2026-04-24 00:55 | -20.61731 | -40.42622 | 13034 ft | 375 kts | 210° |
| 2026-04-24 00:55 | -20.63979 | -40.44061 | 13630 ft | 379 kts | 210° |
| 2026-04-24 00:56 | -20.66257 | -40.45518 | 14182 ft | 383 kts | 210° |
| 2026-04-24 00:56 | -20.68519 | -40.46966 | 14700 ft | 386 kts | 210° |
| 2026-04-24 00:56 | -20.70830 | -40.48446 | 15261 ft | 388 kts | 210° |
| 2026-04-24 00:56 | -20.73154 | -40.49935 | 15807 ft | 391 kts | 210° |
| 2026-04-24 00:57 | -20.75491 | -40.51432 | 16330 ft | 393 kts | 210° |
| 2026-04-24 00:57 | -20.77843 | -40.52940 | 16846 ft | 396 kts | 210° |
| 2026-04-24 00:57 | -20.82601 | -40.55992 | 17865 ft | 401 kts | 210° |
| 2026-04-24 00:58 | -20.84962 | -40.57508 | 18420 ft | 402 kts | 210° |
| 2026-04-24 00:58 | -20.87316 | -40.59020 | 19320 ft | 388 kts | 210° |
| 2026-04-24 00:58 | -20.89594 | -40.60484 | 20286 ft | 374 kts | 210° |
| 2026-04-24 00:58 | -20.91783 | -40.61891 | 21316 ft | 361 kts | 210° |
| 2026-04-24 00:59 | -20.93900 | -40.63252 | 22314 ft | 347 kts | 211° |
| 2026-04-24 00:59 | -20.95937 | -40.64561 | 23266 ft | 338 kts | 211° |
| 2026-04-24 00:59 | -20.97957 | -40.65859 | 23808 ft | 341 kts | 211° |
| 2026-04-24 00:59 | -21.00007 | -40.67178 | 24166 ft | 346 kts | 211° |
| 2026-04-24 01:00 | -21.02045 | -40.68489 | 24590 ft | 347 kts | 211° |
| 2026-04-24 01:00 | -21.04108 | -40.69817 | 25137 ft | 345 kts | 212° |
| 2026-04-24 01:00 | -21.06163 | -40.71141 | 25629 ft | 345 kts | 212° |
| 2026-04-24 01:00 | -21.08231 | -40.72473 | 26061 ft | 348 kts | 212° |
| 2026-04-24 01:01 | -21.10307 | -40.73811 | 26471 ft | 350 kts | 212° |
| 2026-04-24 01:01 | -21.12399 | -40.75159 | 26901 ft | 352 kts | 212° |
| 2026-04-24 01:01 | -21.14464 | -40.76575 | 27325 ft | 353 kts | 217° |
| 2026-04-24 01:01 | -21.16426 | -40.78159 | 27762 ft | 354 kts | 218° |
| 2026-04-24 01:02 | -21.18353 | -40.79759 | 28178 ft | 356 kts | 218° |
| 2026-04-24 01:02 | -21.20310 | -40.81390 | 28588 ft | 357 kts | 218° |
| 2026-04-24 01:02 | -21.22281 | -40.83026 | 28998 ft | 359 kts | 218° |
| 2026-04-24 01:02 | -21.24264 | -40.84665 | 29445 ft | 360 kts | 218° |
| 2026-04-24 01:03 | -21.26246 | -40.86299 | 29905 ft | 360 kts | 218° |
| 2026-04-24 01:03 | -21.28236 | -40.87937 | 30284 ft | 362 kts | 218° |
| 2026-04-24 01:03 | -21.30240 | -40.89586 | 30592 ft | 364 kts | 218° |
| 2026-04-24 01:03 | -21.32258 | -40.91246 | 30895 ft | 366 kts | 218° |
| 2026-04-24 01:04 | -21.34255 | -40.92892 | 31192 ft | 368 kts | 219° |
| 2026-04-24 01:04 | -21.36110 | -40.94787 | 31474 ft | 370 kts | 230° |
| 2026-04-24 01:04 | -21.37658 | -40.96999 | 31780 ft | 372 kts | 237° |
| 2026-04-24 01:04 | -21.38897 | -40.99443 | 32057 ft | 375 kts | 245° |
| 2026-04-24 01:05 | -21.39902 | -41.02033 | 32343 ft | 377 kts | 246° |
| 2026-04-24 01:05 | -21.40878 | -41.04654 | 32620 ft | 379 kts | 247° |
| 2026-04-24 01:05 | -21.41849 | -41.07289 | 32920 ft | 380 kts | 247° |
| 2026-04-24 01:05 | -21.42824 | -41.09929 | 33247 ft | 381 kts | 247° |
| 2026-04-24 01:06 | -21.43804 | -41.12570 | 33517 ft | 382 kts | 246° |
| 2026-04-24 01:06 | -21.44784 | -41.15194 | 33756 ft | 385 kts | 246° |
| 2026-04-24 01:06 | -21.45783 | -41.17863 | 34000 ft | 387 kts | 246° |
| 2026-04-24 01:06 | -21.46793 | -41.20552 | 34160 ft | 390 kts | 246° |
| 2026-04-24 01:07 | -21.47817 | -41.23276 | 34154 ft | 397 kts | 246° |
| 2026-04-24 01:07 | -21.49906 | -41.28836 | 34164 ft | 405 kts | 246° |
| 2026-04-24 01:08 | -21.52002 | -41.34422 | 34149 ft | 401 kts | 247° |
| 2026-04-24 01:08 | -21.54082 | -41.39971 | 34152 ft | 400 kts | 247° |
| 2026-04-24 01:09 | -21.56139 | -41.45462 | 34176 ft | 398 kts | 247° |
| 2026-04-24 01:09 | -21.58203 | -41.50981 | 34163 ft | 398 kts | 247° |
| 2026-04-24 01:10 | -21.60262 | -41.56490 | 34161 ft | 397 kts | 247° |
| 2026-04-24 01:10 | -21.62317 | -41.61997 | 34166 ft | 397 kts | 247° |
| 2026-04-24 01:11 | -21.64358 | -41.67472 | 34172 ft | 398 kts | 247° |
| 2026-04-24 01:11 | -21.66416 | -41.73000 | 34174 ft | 399 kts | 247° |
| 2026-04-24 01:12 | -21.68480 | -41.78549 | 34170 ft | 400 kts | 247° |
| 2026-04-24 01:12 | -21.70546 | -41.84110 | 34181 ft | 401 kts | 247° |
| 2026-04-24 01:13 | -21.72595 | -41.89634 | 34076 ft | 399 kts | 247° |
| 2026-04-24 01:13 | -21.73626 | -41.92416 | 33678 ft | 401 kts | 247° |
| 2026-04-24 01:13 | -21.74673 | -41.95239 | 33231 ft | 413 kts | 247° |
| 2026-04-24 01:13 | -21.75753 | -41.98156 | 32799 ft | 424 kts | 247° |
| 2026-04-24 01:14 | -21.76838 | -42.01088 | 32314 ft | 420 kts | 247° |
| 2026-04-24 01:14 | -21.77911 | -42.03992 | 31859 ft | 416 kts | 247° |
| 2026-04-24 01:14 | -21.78975 | -42.06875 | 31407 ft | 413 kts | 247° |
| 2026-04-24 01:14 | -21.80031 | -42.09735 | 30964 ft | 410 kts | 247° |
| 2026-04-24 01:15 | -21.81065 | -42.12538 | 30528 ft | 407 kts | 247° |
| 2026-04-24 01:15 | -21.82107 | -42.15360 | 30036 ft | 405 kts | 247° |
| 2026-04-24 01:15 | -21.83140 | -42.18162 | 29544 ft | 401 kts | 247° |
| 2026-04-24 01:15 | -21.84258 | -42.20897 | 29043 ft | 397 kts | 241° |
| 2026-04-24 01:16 | -21.85713 | -42.23394 | 28633 ft | 392 kts | 236° |
| 2026-04-24 01:16 | -21.87229 | -42.25817 | 28182 ft | 389 kts | 236° |
| 2026-04-24 01:16 | -21.88737 | -42.28229 | 27703 ft | 386 kts | 236° |
| 2026-04-24 01:16 | -21.90226 | -42.30620 | 27267 ft | 383 kts | 236° |
| 2026-04-24 01:17 | -21.91702 | -42.33001 | 26834 ft | 381 kts | 236° |
| 2026-04-24 01:17 | -21.93147 | -42.35337 | 26402 ft | 379 kts | 236° |
| 2026-04-24 01:17 | -21.94600 | -42.37693 | 25964 ft | 377 kts | 236° |
| 2026-04-24 01:17 | -21.96047 | -42.40042 | 25532 ft | 376 kts | 236° |
| 2026-04-24 01:18 | -21.97490 | -42.42387 | 25074 ft | 375 kts | 236° |
| 2026-04-24 01:18 | -21.98929 | -42.44727 | 24651 ft | 374 kts | 236° |
| 2026-04-24 01:18 | -22.00363 | -42.47061 | 24218 ft | 373 kts | 236° |
| 2026-04-24 01:18 | -22.01795 | -42.49393 | 23776 ft | 373 kts | 236° |
| 2026-04-24 01:19 | -22.03225 | -42.51722 | 23281 ft | 372 kts | 236° |
| 2026-04-24 01:19 | -22.04646 | -42.54039 | 22843 ft | 370 kts | 236° |
| 2026-04-24 01:19 | -22.06050 | -42.56355 | 22397 ft | 368 kts | 239° |
| 2026-04-24 01:19 | -22.07179 | -42.58780 | 21977 ft | 366 kts | 245° |
| 2026-04-24 01:20 | -22.08189 | -42.61291 | 21570 ft | 364 kts | 246° |
| 2026-04-24 01:20 | -22.09165 | -42.63804 | 21152 ft | 363 kts | 246° |
| 2026-04-24 01:20 | -22.10129 | -42.66313 | 20751 ft | 361 kts | 246° |
| 2026-04-24 01:20 | -22.11085 | -42.68814 | 20355 ft | 360 kts | 246° |
| 2026-04-24 01:21 | -22.12033 | -42.71313 | 19905 ft | 360 kts | 247° |
| 2026-04-24 01:21 | -22.12917 | -42.73849 | 19623 ft | 359 kts | 249° |
| 2026-04-24 01:21 | -22.13742 | -42.76402 | 19394 ft | 365 kts | 250° |
| 2026-04-24 01:21 | -22.14576 | -42.79022 | 19165 ft | 373 kts | 250° |
| 2026-04-24 01:22 | -22.15412 | -42.81641 | 18968 ft | 375 kts | 250° |
| 2026-04-24 01:22 | -22.16263 | -42.84290 | 18741 ft | 373 kts | 250° |
| 2026-04-24 01:22 | -22.17118 | -42.86934 | 18514 ft | 372 kts | 250° |
| 2026-04-24 01:22 | -22.17972 | -42.89563 | 18259 ft | 372 kts | 249° |
| 2026-04-24 01:23 | -22.18826 | -42.92182 | 17999 ft | 368 kts | 249° |
| 2026-04-24 01:23 | -22.19668 | -42.94761 | 17732 ft | 361 kts | 249° |
| 2026-04-24 01:23 | -22.20489 | -42.97279 | 17462 ft | 351 kts | 249° |
| 2026-04-24 01:23 | -22.21289 | -42.99732 | 17203 ft | 342 kts | 249° |
| 2026-04-24 01:24 | -22.22070 | -43.02125 | 16940 ft | 335 kts | 249° |
| 2026-04-24 01:24 | -22.22830 | -43.04454 | 16637 ft | 334 kts | 249° |
| 2026-04-24 01:24 | -22.23598 | -43.06808 | 16276 ft | 331 kts | 249° |
| 2026-04-24 01:24 | -22.24357 | -43.09136 | 15915 ft | 326 kts | 249° |
| 2026-04-24 01:25 | -22.25105 | -43.11429 | 15564 ft | 322 kts | 249° |
| 2026-04-24 01:25 | -22.25843 | -43.13699 | 15219 ft | 319 kts | 249° |
| 2026-04-24 01:25 | -22.26575 | -43.15950 | 14874 ft | 317 kts | 249° |
| 2026-04-24 01:25 | -22.27306 | -43.18198 | 14501 ft | 318 kts | 249° |
| 2026-04-24 01:26 | -22.28040 | -43.20455 | 14152 ft | 320 kts | 249° |
| 2026-04-24 01:26 | -22.28779 | -43.22728 | 13760 ft | 321 kts | 249° |
| 2026-04-24 01:26 | -22.29517 | -43.25002 | 13394 ft | 321 kts | 249° |
| 2026-04-24 01:26 | -22.30257 | -43.27280 | 13030 ft | 321 kts | 249° |
| 2026-04-24 01:27 | -22.30993 | -43.29551 | 12665 ft | 319 kts | 249° |
| 2026-04-24 01:27 | -22.31711 | -43.31766 | 12315 ft | 315 kts | 249° |
| 2026-04-24 01:27 | -22.32429 | -43.33985 | 11958 ft | 311 kts | 249° |
| 2026-04-24 01:27 | -22.33137 | -43.36173 | 11626 ft | 307 kts | 250° |
| 2026-04-24 01:28 | -22.33836 | -43.38333 | 11283 ft | 303 kts | 250° |
| 2026-04-24 01:28 | -22.34526 | -43.40465 | 10948 ft | 299 kts | 250° |
| 2026-04-24 01:28 | -22.35203 | -43.42559 | 10741 ft | 290 kts | 250° |
| 2026-04-24 01:28 | -22.35856 | -43.44582 | 10605 ft | 280 kts | 250° |
| 2026-04-24 01:29 | -22.36684 | -43.46422 | 10449 ft | 267 kts | 228° |
| 2026-04-24 01:29 | -22.37994 | -43.47789 | 10379 ft | 260 kts | 218° |
| 2026-04-24 01:29 | -22.39364 | -43.49024 | 10278 ft | 260 kts | 217° |
| 2026-04-24 01:29 | -22.40759 | -43.50262 | 10213 ft | 259 kts | 217° |
| 2026-04-24 01:30 | -22.42150 | -43.51490 | 10189 ft | 258 kts | 217° |
| 2026-04-24 01:30 | -22.43543 | -43.52716 | 10201 ft | 259 kts | 217° |
| 2026-04-24 01:30 | -22.44944 | -43.53949 | 10200 ft | 260 kts | 217° |
| 2026-04-24 01:30 | -22.46347 | -43.55182 | 10190 ft | 260 kts | 217° |
| 2026-04-24 01:31 | -22.47778 | -43.56439 | 9780 ft | 270 kts | 217° |
| 2026-04-24 01:31 | -22.49246 | -43.57721 | 9335 ft | 272 kts | 217° |
| 2026-04-24 01:31 | -22.50736 | -43.58985 | 8884 ft | 272 kts | 211° |
| 2026-04-24 01:31 | -22.52499 | -43.59562 | 8522 ft | 262 kts | 174° |
| 2026-04-24 01:32 | -22.54150 | -43.58929 | 8291 ft | 252 kts | 138° |
| 2026-04-24 01:32 | -22.55416 | -43.57670 | 8143 ft | 245 kts | 144° |
| 2026-04-24 01:32 | -22.56896 | -43.56770 | 7867 ft | 244 kts | 150° |
| 2026-04-24 01:32 | -22.58347 | -43.55881 | 7619 ft | 242 kts | 148° |
| 2026-04-24 01:33 | -22.59791 | -43.54943 | 7366 ft | 242 kts | 147° |
| 2026-04-24 01:33 | -22.61226 | -43.54003 | 7063 ft | 242 kts | 148° |
| 2026-04-24 01:33 | -22.62673 | -43.53052 | 6714 ft | 243 kts | 148° |
| 2026-04-24 01:33 | -22.64104 | -43.52076 | 6399 ft | 242 kts | 141° |
| 2026-04-24 01:34 | -22.65207 | -43.50701 | 6017 ft | 242 kts | 123° |
| 2026-04-24 01:34 | -22.66143 | -43.49219 | 5730 ft | 235 kts | 124° |
| 2026-04-24 01:34 | -22.67067 | -43.47794 | 5392 ft | 225 kts | 124° |
| 2026-04-24 01:34 | -22.67955 | -43.46429 | 4955 ft | 218 kts | 124° |
| 2026-04-24 01:35 | -22.68807 | -43.45135 | 4569 ft | 209 kts | 124° |
| 2026-04-24 01:35 | -22.69640 | -43.43874 | 4160 ft | 202 kts | 124° |
| 2026-04-24 01:35 | -22.70447 | -43.42656 | 3768 ft | 196 kts | 124° |
| 2026-04-24 01:35 | -22.71228 | -43.41478 | 3409 ft | 189 kts | 124° |
| 2026-04-24 01:36 | -22.71969 | -43.40360 | 3144 ft | 176 kts | 123° |
| 2026-04-24 01:36 | -22.72662 | -43.39314 | 2895 ft | 167 kts | 123° |
| 2026-04-24 01:36 | -22.73327 | -43.38311 | 2674 ft | 161 kts | 123° |
| 2026-04-24 01:36 | -22.73958 | -43.37359 | 2489 ft | 153 kts | 123° |
| 2026-04-24 01:37 | -22.74581 | -43.36419 | 2275 ft | 153 kts | 123° |
| 2026-04-24 01:37 | -22.75179 | -43.35516 | 2138 ft | 147 kts | 123° |
| 2026-04-24 01:37 | -22.75775 | -43.34616 | 1896 ft | 146 kts | 123° |
| 2026-04-24 01:37 | -22.76361 | -43.33732 | 1686 ft | 144 kts | 123° |
| 2026-04-24 01:38 | -22.76946 | -43.32849 | 1494 ft | 144 kts | 124° |
| 2026-04-24 01:38 | -22.77528 | -43.31963 | 1319 ft | 145 kts | 123° |
| 2026-04-24 01:38 | -22.78086 | -43.31060 | 1124 ft | 144 kts | 122° |
| 2026-04-24 01:38 | -22.78679 | -43.30185 | 898 ft | 144 kts | 127° |
| 2026-04-24 01:39 | -22.79285 | -43.29306 | 653 ft | 145 kts | 125° |
| 2026-04-24 01:39 | -22.79865 | -43.28419 | 469 ft | 143 kts | 126° |
| 2026-04-24 01:39 | -22.80443 | -43.27560 | 349 ft | 141 kts | 126° |
| 2026-04-24 01:39 | -22.81009 | -43.26702 | 171 ft | 141 kts | 126° |
| 2026-04-24 01:40 | -22.81578 | -43.25859 | 25 ft | 131 kts | 126° |
| 2026-04-24 01:40 | -22.81976 | -43.25261 | 28 ft | 59 kts | 126° |
| 2026-04-24 01:40 | -22.82196 | -43.24934 | 21 ft | 25 kts | 126° |
| 2026-04-24 01:40 | -22.82275 | -43.24808 | 18 ft | 19 kts | 123° |
| 2026-04-24 01:41 | -22.82334 | -43.24685 | 18 ft | 16 kts | 106° |
| 2026-04-24 01:41 | -22.82354 | -43.24604 | 20 ft | 9 kts | 105° |
| 2026-04-24 01:41 | -22.82361 | -43.24551 | 18 ft | 6 kts | 95° |
| 2026-04-24 01:41 | -22.82365 | -43.24504 | 18 ft | 6 kts | 95° |
| 2026-04-24 01:42 | -22.82360 | -43.24459 | 17 ft | 7 kts | 46° |
| 2026-04-24 01:42 | -22.82314 | -43.24478 | 18 ft | 10 kts | 307° |
| 2026-04-24 01:42 | -22.82269 | -43.24546 | 19 ft | 13 kts | 306° |
| 2026-04-24 01:42 | -22.82213 | -43.24630 | 19 ft | 14 kts | 306° |
| 2026-04-24 01:43 | -22.82152 | -43.24723 | 19 ft | 15 kts | 306° |
| 2026-04-24 01:43 | -22.82090 | -43.24816 | 21 ft | 15 kts | 306° |
| 2026-04-24 01:43 | -22.82031 | -43.24905 | 24 ft | 15 kts | 306° |
| 2026-04-24 01:43 | -22.81968 | -43.25002 | 23 ft | 16 kts | 305° |
| 2026-04-24 01:44 | -22.81903 | -43.25099 | 24 ft | 16 kts | 306° |
| 2026-04-24 01:44 | -22.81839 | -43.25197 | 25 ft | 17 kts | 305° |
| 2026-04-24 01:44 | -22.81767 | -43.25253 | 21 ft | 12 kts | 15° |
| 2026-04-24 01:44 | -22.81701 | -43.25206 | 22 ft | 12 kts | 35° |
| 2026-04-24 01:45 | -22.81634 | -43.25155 | 21 ft | 12 kts | 35° |
| 2026-04-24 01:45 | -22.81573 | -43.25107 | 22 ft | 9 kts | 36° |
| 2026-04-24 01:45 | -22.81516 | -43.25065 | 23 ft | 11 kts | 33° |
| 2026-04-24 01:45 | -22.81487 | -43.25003 | 20 ft | 9 kts | 96° |
| 2026-04-24 01:46 | -22.81512 | -43.24942 | 21 ft | 8 kts | 121° |
| 2026-04-24 01:46 | -22.81542 | -43.24891 | 21 ft | 6 kts | 124° |
| 2026-04-24 01:46 | -22.81543 | -43.24850 | 21 ft | 6 kts | 56° |
| 2026-04-24 01:46 | -22.81522 | -43.24818 | 21 ft | 1 kts | 54° |
| 2026-04-24 01:47 | -22.81519 | -43.24813 | 21 ft | 2 kts | 54° |
| 2026-04-24 01:47 | -22.81518 | -43.24812 | 21 ft | 0 kts | 54° |